sensor_id;sensor_type;location;lat;lon;timestamp;temperature;humidity
52127;DHT22;38120;53.176;6.614;2022-08-06T00:01:47;13.30;99.90
52127;DHT22;38120;53.176;6.614;2022-08-06T00:04:13;13.20;99.90
52127;DHT22;38120;53.176;6.614;2022-08-06T00:06:39;13.20;99.90
52127;DHT22;38120;53.176;6.614;2022-08-06T00:09:04;13.20;99.90
52127;DHT22;38120;53.176;6.614;2022-08-06T00:11:30;13.10;99.90
52127;DHT22;38120;53.176;6.614;2022-08-06T00:13:56;13.10;99.90
52127;DHT22;38120;53.176;6.614;2022-08-06T00:16:21;13.10;99.90
52127;DHT22;38120;53.176;6.614;2022-08-06T00:18:47;13.00;99.90
52127;DHT22;38120;53.176;6.614;2022-08-06T00:21:13;13.10;99.90
52127;DHT22;38120;53.176;6.614;2022-08-06T00:23:39;12.90;99.90
52127;DHT22;38120;53.176;6.614;2022-08-06T00:26:05;12.90;99.90
52127;DHT22;38120;53.176;6.614;2022-08-06T00:28:30;12.90;99.90
52127;DHT22;38120;53.176;6.614;2022-08-06T00:30:56;12.90;99.90
52127;DHT22;38120;53.176;6.614;2022-08-06T00:33:21;12.90;99.90
52127;DHT22;38120;53.176;6.614;2022-08-06T00:35:47;12.80;99.90
52127;DHT22;38120;53.176;6.614;2022-08-06T00:38:13;12.80;99.90
52127;DHT22;38120;53.176;6.614;2022-08-06T00:40:39;12.80;99.90
52127;DHT22;38120;53.176;6.614;2022-08-06T00:43:05;12.70;99.90
52127;DHT22;38120;53.176;6.614;2022-08-06T00:45:32;12.70;99.90
52127;DHT22;38120;53.176;6.614;2022-08-06T00:47:58;12.70;99.90
52127;DHT22;38120;53.176;6.614;2022-08-06T00:50:24;12.60;99.90
52127;DHT22;38120;53.176;6.614;2022-08-06T00:52:50;12.60;99.90
52127;DHT22;38120;53.176;6.614;2022-08-06T00:55:16;12.60;99.90
52127;DHT22;38120;53.176;6.614;2022-08-06T00:57:41;12.60;99.90
52127;DHT22;38120;53.176;6.614;2022-08-06T01:00:08;12.60;99.90
52127;DHT22;38120;53.176;6.614;2022-08-06T01:02:34;12.60;99.90
52127;DHT22;38120;53.176;6.614;2022-08-06T01:04:59;12.60;99.90
52127;DHT22;38120;53.176;6.614;2022-08-06T01:07:25;12.50;99.90
52127;DHT22;38120;53.176;6.614;2022-08-06T01:09:51;12.60;99.90
52127;DHT22;38120;53.176;6.614;2022-08-06T01:12:17;12.50;99.90
52127;DHT22;38120;53.176;6.614;2022-08-06T01:14:43;12.50;99.90
52127;DHT22;38120;53.176;6.614;2022-08-06T01:17:19;12.50;99.90
52127;DHT22;38120;53.176;6.614;2022-08-06T01:19:57;12.50;99.90
52127;DHT22;38120;53.176;6.614;2022-08-06T01:25:26;12.50;99.90
52127;DHT22;38120;53.176;6.614;2022-08-06T01:28:01;12.50;99.90
52127;DHT22;38120;53.176;6.614;2022-08-06T01:30:34;12.50;99.90
52127;DHT22;38120;53.176;6.614;2022-08-06T01:33:04;12.40;99.90
52127;DHT22;38120;53.176;6.614;2022-08-06T01:35:36;12.30;99.90
52127;DHT22;38120;53.176;6.614;2022-08-06T01:38:34;12.30;99.90
52127;DHT22;38120;53.176;6.614;2022-08-06T01:41:04;12.30;99.90
52127;DHT22;38120;53.176;6.614;2022-08-06T01:43:32;12.30;99.90
52127;DHT22;38120;53.176;6.614;2022-08-06T01:46:00;12.30;99.90
52127;DHT22;38120;53.176;6.614;2022-08-06T01:48:27;12.30;99.90
52127;DHT22;38120;53.176;6.614;2022-08-06T01:50:57;12.20;99.90
52127;DHT22;38120;53.176;6.614;2022-08-06T01:53:28;12.20;99.90
52127;DHT22;38120;53.176;6.614;2022-08-06T01:55:59;12.20;99.90
52127;DHT22;38120;53.176;6.614;2022-08-06T01:58:37;12.10;99.90
52127;DHT22;38120;53.176;6.614;2022-08-06T02:01:06;12.20;99.90
52127;DHT22;38120;53.176;6.614;2022-08-06T02:03:40;12.20;99.90
52127;DHT22;38120;53.176;6.614;2022-08-06T02:06:11;12.20;99.90
52127;DHT22;38120;53.176;6.614;2022-08-06T02:08:38;12.20;99.90
52127;DHT22;38120;53.176;6.614;2022-08-06T02:11:06;12.20;99.90
52127;DHT22;38120;53.176;6.614;2022-08-06T02:13:33;12.10;99.90
52127;DHT22;38120;53.176;6.614;2022-08-06T02:16:01;12.10;99.90
52127;DHT22;38120;53.176;6.614;2022-08-06T02:18:30;12.10;99.90
52127;DHT22;38120;53.176;6.614;2022-08-06T02:21:01;12.20;99.90
52127;DHT22;38120;53.176;6.614;2022-08-06T02:23:28;12.10;99.90
52127;DHT22;38120;53.176;6.614;2022-08-06T02:25:55;12.10;99.90
52127;DHT22;38120;53.176;6.614;2022-08-06T02:28:23;12.10;99.90
52127;DHT22;38120;53.176;6.614;2022-08-06T02:30:54;12.00;99.90
52127;DHT22;38120;53.176;6.614;2022-08-06T02:33:20;12.00;99.90
52127;DHT22;38120;53.176;6.614;2022-08-06T02:35:49;12.00;99.90
52127;DHT22;38120;53.176;6.614;2022-08-06T02:38:31;12.00;99.90
52127;DHT22;38120;53.176;6.614;2022-08-06T02:41:11;12.00;99.90
52127;DHT22;38120;53.176;6.614;2022-08-06T02:43:46;12.00;99.90
52127;DHT22;38120;53.176;6.614;2022-08-06T02:46:23;12.00;99.90
52127;DHT22;38120;53.176;6.614;2022-08-06T02:48:52;11.90;99.90
52127;DHT22;38120;53.176;6.614;2022-08-06T02:51:27;12.00;99.90
52127;DHT22;38120;53.176;6.614;2022-08-06T02:54:05;11.90;99.90
52127;DHT22;38120;53.176;6.614;2022-08-06T02:56:32;11.80;99.90
52127;DHT22;38120;53.176;6.614;2022-08-06T02:59:00;11.80;99.90
52127;DHT22;38120;53.176;6.614;2022-08-06T03:01:34;11.80;99.90
52127;DHT22;38120;53.176;6.614;2022-08-06T03:04:01;11.80;99.90
52127;DHT22;38120;53.176;6.614;2022-08-06T03:06:30;11.90;99.90
52127;DHT22;38120;53.176;6.614;2022-08-06T03:08:58;11.70;99.90
52127;DHT22;38120;53.176;6.614;2022-08-06T03:11:26;11.70;99.90
52127;DHT22;38120;53.176;6.614;2022-08-06T03:13:55;11.70;99.90
52127;DHT22;38120;53.176;6.614;2022-08-06T03:16:22;11.70;99.90
52127;DHT22;38120;53.176;6.614;2022-08-06T03:18:49;11.60;99.90
52127;DHT22;38120;53.176;6.614;2022-08-06T03:21:20;11.60;99.90
52127;DHT22;38120;53.176;6.614;2022-08-06T03:23:47;11.60;99.90
52127;DHT22;38120;53.176;6.614;2022-08-06T03:26:14;11.50;99.90
52127;DHT22;38120;53.176;6.614;2022-08-06T03:28:41;11.50;99.90
52127;DHT22;38120;53.176;6.614;2022-08-06T03:31:07;11.50;99.90
52127;DHT22;38120;53.176;6.614;2022-08-06T03:33:34;11.50;99.90
52127;DHT22;38120;53.176;6.614;2022-08-06T03:36:00;11.40;99.90
52127;DHT22;38120;53.176;6.614;2022-08-06T03:38:30;11.50;99.90
52127;DHT22;38120;53.176;6.614;2022-08-06T03:40:57;11.40;99.90
52127;DHT22;38120;53.176;6.614;2022-08-06T03:43:25;12.10;99.90
52127;DHT22;38120;53.176;6.614;2022-08-06T03:45:53;11.40;99.90
52127;DHT22;38120;53.176;6.614;2022-08-06T03:48:24;11.40;99.90
52127;DHT22;38120;53.176;6.614;2022-08-06T03:50:53;11.40;99.90
52127;DHT22;38120;53.176;6.614;2022-08-06T03:53:22;11.60;99.90
52127;DHT22;38120;53.176;6.614;2022-08-06T03:55:50;11.40;99.90
52127;DHT22;38120;53.176;6.614;2022-08-06T03:58:18;11.40;99.90
52127;DHT22;38120;53.176;6.614;2022-08-06T04:00:49;11.40;99.90
52127;DHT22;38120;53.176;6.614;2022-08-06T04:03:16;11.40;99.90
52127;DHT22;38120;53.176;6.614;2022-08-06T04:05:42;11.30;99.90
52127;DHT22;38120;53.176;6.614;2022-08-06T04:08:09;11.40;99.90
52127;DHT22;38120;53.176;6.614;2022-08-06T04:10:43;11.30;99.90
52127;DHT22;38120;53.176;6.614;2022-08-06T04:13:15;11.40;99.90
52127;DHT22;38120;53.176;6.614;2022-08-06T04:15:41;11.40;99.90
52127;DHT22;38120;53.176;6.614;2022-08-06T04:18:09;11.40;99.90
52127;DHT22;38120;53.176;6.614;2022-08-06T04:20:37;11.40;99.90
52127;DHT22;38120;53.176;6.614;2022-08-06T04:23:03;11.40;99.90
52127;DHT22;38120;53.176;6.614;2022-08-06T04:25:38;11.40;99.90
52127;DHT22;38120;53.176;6.614;2022-08-06T04:28:06;11.40;99.90
52127;DHT22;38120;53.176;6.614;2022-08-06T04:30:34;11.40;99.90
52127;DHT22;38120;53.176;6.614;2022-08-06T04:33:05;11.50;99.90
52127;DHT22;38120;53.176;6.614;2022-08-06T04:35:32;10.70;99.90
52127;DHT22;38120;53.176;6.614;2022-08-06T04:37:58;11.50;99.90
52127;DHT22;38120;53.176;6.614;2022-08-06T04:40:25;11.50;99.90
52127;DHT22;38120;53.176;6.614;2022-08-06T04:42:51;11.60;99.90
52127;DHT22;38120;53.176;6.614;2022-08-06T04:45:18;11.70;99.90
52127;DHT22;38120;53.176;6.614;2022-08-06T04:47:45;11.70;99.90
52127;DHT22;38120;53.176;6.614;2022-08-06T04:50:11;11.80;99.90
52127;DHT22;38120;53.176;6.614;2022-08-06T04:52:37;11.90;99.90
52127;DHT22;38120;53.176;6.614;2022-08-06T04:55:03;12.00;99.90
52127;DHT22;38120;53.176;6.614;2022-08-06T04:57:29;12.00;99.90
52127;DHT22;38120;53.176;6.614;2022-08-06T04:59:54;12.10;99.90
52127;DHT22;38120;53.176;6.614;2022-08-06T05:02:20;12.20;99.90
52127;DHT22;38120;53.176;6.614;2022-08-06T05:04:47;12.20;99.90
52127;DHT22;38120;53.176;6.614;2022-08-06T05:07:22;12.30;99.90
52127;DHT22;38120;53.176;6.614;2022-08-06T05:09:49;12.40;99.90
52127;DHT22;38120;53.176;6.614;2022-08-06T05:12:19;12.60;99.90
52127;DHT22;38120;53.176;6.614;2022-08-06T05:14:55;12.50;99.90
52127;DHT22;38120;53.176;6.614;2022-08-06T05:17:26;12.50;99.90
52127;DHT22;38120;53.176;6.614;2022-08-06T05:19:58;12.60;99.90
52127;DHT22;38120;53.176;6.614;2022-08-06T05:22:25;12.60;99.90
52127;DHT22;38120;53.176;6.614;2022-08-06T05:24:52;12.70;99.90
52127;DHT22;38120;53.176;6.614;2022-08-06T05:27:18;12.60;99.90
52127;DHT22;38120;53.176;6.614;2022-08-06T05:29:45;12.50;99.90
52127;DHT22;38120;53.176;6.614;2022-08-06T05:32:10;12.50;99.90
52127;DHT22;38120;53.176;6.614;2022-08-06T05:34:37;12.50;99.90
52127;DHT22;38120;53.176;6.614;2022-08-06T05:37:03;12.40;99.90
52127;DHT22;38120;53.176;6.614;2022-08-06T05:39:28;12.40;99.90
52127;DHT22;38120;53.176;6.614;2022-08-06T05:41:54;12.40;99.90
52127;DHT22;38120;53.176;6.614;2022-08-06T05:44:20;12.40;99.90
52127;DHT22;38120;53.176;6.614;2022-08-06T05:46:50;12.50;99.90
52127;DHT22;38120;53.176;6.614;2022-08-06T05:49:25;12.60;99.90
52127;DHT22;38120;53.176;6.614;2022-08-06T05:52:23;12.90;99.90
52127;DHT22;38120;53.176;6.614;2022-08-06T05:54:51;13.10;99.90
52127;DHT22;38120;53.176;6.614;2022-08-06T05:57:24;13.20;99.90
52127;DHT22;38120;53.176;6.614;2022-08-06T05:59:56;13.40;99.90
52127;DHT22;38120;53.176;6.614;2022-08-06T06:02:26;13.50;99.90
52127;DHT22;38120;53.176;6.614;2022-08-06T06:04:53;13.50;99.90
52127;DHT22;38120;53.176;6.614;2022-08-06T06:07:19;13.50;99.90
52127;DHT22;38120;53.176;6.614;2022-08-06T06:09:45;13.50;99.90
52127;DHT22;38120;53.176;6.614;2022-08-06T06:12:15;13.50;99.90
52127;DHT22;38120;53.176;6.614;2022-08-06T06:14:43;13.70;99.90
52127;DHT22;38120;53.176;6.614;2022-08-06T06:22:29;13.50;99.90
52127;DHT22;38120;53.176;6.614;2022-08-06T06:25:04;13.60;99.90
52127;DHT22;38120;53.176;6.614;2022-08-06T06:27:46;13.80;99.90
52127;DHT22;38120;53.176;6.614;2022-08-06T06:30:26;14.10;99.90
52127;DHT22;38120;53.176;6.614;2022-08-06T06:33:40;14.30;99.90
52127;DHT22;38120;53.176;6.614;2022-08-06T06:39:24;14.80;99.90
52127;DHT22;38120;53.176;6.614;2022-08-06T06:41:57;15.00;99.90
52127;DHT22;38120;53.176;6.614;2022-08-06T06:47:10;15.50;99.90
52127;DHT22;38120;53.176;6.614;2022-08-06T06:49:44;15.60;99.90
52127;DHT22;38120;53.176;6.614;2022-08-06T06:52:21;15.80;99.90
52127;DHT22;38120;53.176;6.614;2022-08-06T06:54:54;16.00;99.90
52127;DHT22;38120;53.176;6.614;2022-08-06T06:57:29;15.90;99.90
52127;DHT22;38120;53.176;6.614;2022-08-06T06:59:59;16.20;99.90
52127;DHT22;38120;53.176;6.614;2022-08-06T07:02:27;16.30;99.90
52127;DHT22;38120;53.176;6.614;2022-08-06T07:04:55;16.30;99.90
52127;DHT22;38120;53.176;6.614;2022-08-06T07:07:22;16.30;99.90
52127;DHT22;38120;53.176;6.614;2022-08-06T07:09:49;16.40;99.90
52127;DHT22;38120;53.176;6.614;2022-08-06T07:12:19;16.50;99.90
52127;DHT22;38120;53.176;6.614;2022-08-06T07:14:46;16.60;99.90
52127;DHT22;38120;53.176;6.614;2022-08-06T07:17:15;16.60;99.90
52127;DHT22;38120;53.176;6.614;2022-08-06T07:19:45;16.80;99.90
52127;DHT22;38120;53.176;6.614;2022-08-06T07:22:12;16.90;99.90
52127;DHT22;38120;53.176;6.614;2022-08-06T07:24:38;17.00;99.90
52127;DHT22;38120;53.176;6.614;2022-08-06T07:27:08;17.10;99.90
52127;DHT22;38120;53.176;6.614;2022-08-06T07:29:34;17.20;99.90
52127;DHT22;38120;53.176;6.614;2022-08-06T07:32:01;17.40;99.90
52127;DHT22;38120;53.176;6.614;2022-08-06T07:34:28;17.50;99.90
52127;DHT22;38120;53.176;6.614;2022-08-06T07:36:56;17.60;99.90
52127;DHT22;38120;53.176;6.614;2022-08-06T07:39:26;17.70;99.90
52127;DHT22;38120;53.176;6.614;2022-08-06T07:41:53;17.60;99.90
52127;DHT22;38120;53.176;6.614;2022-08-06T07:44:22;17.70;99.90
52127;DHT22;38120;53.176;6.614;2022-08-06T07:46:51;17.80;99.90
52127;DHT22;38120;53.176;6.614;2022-08-06T07:49:23;18.00;99.90
52127;DHT22;38120;53.176;6.614;2022-08-06T07:51:50;18.00;99.90
52127;DHT22;38120;53.176;6.614;2022-08-06T07:54:18;18.00;99.90
52127;DHT22;38120;53.176;6.614;2022-08-06T07:56:45;18.20;99.90
52127;DHT22;38120;53.176;6.614;2022-08-06T07:59:11;18.20;99.90
52127;DHT22;38120;53.176;6.614;2022-08-06T08:01:38;18.30;99.90
52127;DHT22;38120;53.176;6.614;2022-08-06T08:04:05;18.60;99.90
52127;DHT22;38120;53.176;6.614;2022-08-06T08:06:55;18.20;99.90
52127;DHT22;38120;53.176;6.614;2022-08-06T08:09:26;17.80;99.90
52127;DHT22;38120;53.176;6.614;2022-08-06T08:11:53;17.70;99.90
52127;DHT22;38120;53.176;6.614;2022-08-06T08:14:22;17.90;99.90
52127;DHT22;38120;53.176;6.614;2022-08-06T08:16:48;18.20;99.90
52127;DHT22;38120;53.176;6.614;2022-08-06T08:21:49;18.60;99.90
52127;DHT22;38120;53.176;6.614;2022-08-06T08:24:15;18.60;99.90
52127;DHT22;38120;53.176;6.614;2022-08-06T08:26:41;18.80;99.90
52127;DHT22;38120;53.176;6.614;2022-08-06T08:29:07;18.70;99.90
52127;DHT22;38120;53.176;6.614;2022-08-06T08:35:53;18.80;99.90
52127;DHT22;38120;53.176;6.614;2022-08-06T08:38:19;18.80;99.90
52127;DHT22;38120;53.176;6.614;2022-08-06T08:40:47;18.60;99.90
52127;DHT22;38120;53.176;6.614;2022-08-06T08:43:19;19.00;99.90
52127;DHT22;38120;53.176;6.614;2022-08-06T08:45:47;19.20;99.90
52127;DHT22;38120;53.176;6.614;2022-08-06T08:48:17;18.20;99.90
52127;DHT22;38120;53.176;6.614;2022-08-06T08:50:46;19.00;99.90
52127;DHT22;38120;53.176;6.614;2022-08-06T08:53:14;18.90;99.90
52127;DHT22;38120;53.176;6.614;2022-08-06T08:55:41;18.60;99.90
52127;DHT22;38120;53.176;6.614;2022-08-06T08:58:07;18.30;99.90
52127;DHT22;38120;53.176;6.614;2022-08-06T09:00:34;18.20;99.90
52127;DHT22;38120;53.176;6.614;2022-08-06T09:03:00;17.90;99.90
52127;DHT22;38120;53.176;6.614;2022-08-06T09:05:28;17.70;99.90
52127;DHT22;38120;53.176;6.614;2022-08-06T09:07:55;17.60;99.90
52127;DHT22;38120;53.176;6.614;2022-08-06T09:10:25;17.50;99.90
52127;DHT22;38120;53.176;6.614;2022-08-06T09:12:52;17.40;99.90
52127;DHT22;38120;53.176;6.614;2022-08-06T09:15:17;17.40;99.90
52127;DHT22;38120;53.176;6.614;2022-08-06T09:17:47;17.30;99.90
52127;DHT22;38120;53.176;6.614;2022-08-06T09:20:14;17.40;99.90
52127;DHT22;38120;53.176;6.614;2022-08-06T09:22:41;17.40;99.90
52127;DHT22;38120;53.176;6.614;2022-08-06T09:31:00;17.40;99.90
52127;DHT22;38120;53.176;6.614;2022-08-06T09:33:26;17.50;99.90
52127;DHT22;38120;53.176;6.614;2022-08-06T09:35:59;17.50;99.90
52127;DHT22;38120;53.176;6.614;2022-08-06T09:38:24;17.40;99.90
52127;DHT22;38120;53.176;6.614;2022-08-06T09:41:09;17.50;99.90
52127;DHT22;38120;53.176;6.614;2022-08-06T09:43:36;17.40;99.90
52127;DHT22;38120;53.176;6.614;2022-08-06T09:46:03;17.60;99.90
52127;DHT22;38120;53.176;6.614;2022-08-06T09:48:29;18.00;99.90
52127;DHT22;38120;53.176;6.614;2022-08-06T09:50:55;18.40;99.90
52127;DHT22;38120;53.176;6.614;2022-08-06T09:53:21;18.80;99.90
52127;DHT22;38120;53.176;6.614;2022-08-06T09:55:49;19.30;99.90
52127;DHT22;38120;53.176;6.614;2022-08-06T09:58:29;20.00;99.90
52127;DHT22;38120;53.176;6.614;2022-08-06T10:00:56;18.70;99.90
52127;DHT22;38120;53.176;6.614;2022-08-06T10:03:22;19.60;99.90
52127;DHT22;38120;53.176;6.614;2022-08-06T10:06:03;19.30;99.90
52127;DHT22;38120;53.176;6.614;2022-08-06T10:08:29;19.10;99.90
52127;DHT22;38120;53.176;6.614;2022-08-06T10:10:58;18.80;99.90
52127;DHT22;38120;53.176;6.614;2022-08-06T10:13:31;18.70;99.90
52127;DHT22;38120;53.176;6.614;2022-08-06T10:15:59;19.10;99.90
52127;DHT22;38120;53.176;6.614;2022-08-06T10:18:33;19.40;1.00
52127;DHT22;38120;53.176;6.614;2022-08-06T10:21:04;19.60;1.00
52127;DHT22;38120;53.176;6.614;2022-08-06T10:23:35;19.80;99.90
52127;DHT22;38120;53.176;6.614;2022-08-06T10:26:06;19.50;99.90
52127;DHT22;38120;53.176;6.614;2022-08-06T10:28:34;19.30;1.00
52127;DHT22;38120;53.176;6.614;2022-08-06T10:31:02;19.20;99.90
52127;DHT22;38120;53.176;6.614;2022-08-06T10:33:34;19.70;99.90
52127;DHT22;38120;53.176;6.614;2022-08-06T10:36:08;20.20;99.90
52127;DHT22;38120;53.176;6.614;2022-08-06T10:38:35;19.90;99.90
52127;DHT22;38120;53.176;6.614;2022-08-06T10:41:10;19.60;69.10
52127;DHT22;38120;53.176;6.614;2022-08-06T10:43:37;19.40;99.90
52127;DHT22;38120;53.176;6.614;2022-08-06T10:46:09;19.20;99.90
52127;DHT22;38120;53.176;6.614;2022-08-06T10:48:36;19.00;46.20
52127;DHT22;38120;53.176;6.614;2022-08-06T10:51:05;18.90;1.00
52127;DHT22;38120;53.176;6.614;2022-08-06T10:53:33;19.10;1.00
52127;DHT22;38120;53.176;6.614;2022-08-06T10:56:04;19.20;1.00
52127;DHT22;38120;53.176;6.614;2022-08-06T10:58:31;19.30;1.00
52127;DHT22;38120;53.176;6.614;2022-08-06T11:00:59;19.10;1.00
52127;DHT22;38120;53.176;6.614;2022-08-06T11:06:36;19.10;99.90
52127;DHT22;38120;53.176;6.614;2022-08-06T11:14:46;19.30;1.00
52127;DHT22;38120;53.176;6.614;2022-08-06T11:17:54;19.70;1.00
52127;DHT22;38120;53.176;6.614;2022-08-06T11:20:33;20.20;99.90
52127;DHT22;38120;53.176;6.614;2022-08-06T11:23:21;20.30;99.90
52127;DHT22;38120;53.176;6.614;2022-08-06T11:25:52;20.10;99.90
52127;DHT22;38120;53.176;6.614;2022-08-06T11:28:19;20.10;99.90
52127;DHT22;38120;53.176;6.614;2022-08-06T11:30:47;20.10;99.90
52127;DHT22;38120;53.176;6.614;2022-08-06T11:36:10;20.20;99.90
52127;DHT22;38120;53.176;6.614;2022-08-06T11:41:24;21.00;99.90
52127;DHT22;38120;53.176;6.614;2022-08-06T11:51:59;21.20;99.90
52127;DHT22;38120;53.176;6.614;2022-08-06T12:01:56;21.40;99.90
52127;DHT22;38120;53.176;6.614;2022-08-06T12:07:18;21.40;99.90
52127;DHT22;38120;53.176;6.614;2022-08-06T12:09:57;21.30;99.90
52127;DHT22;38120;53.176;6.614;2022-08-06T12:14:56;20.70;99.90
52127;DHT22;38120;53.176;6.614;2022-08-06T12:17:23;20.70;99.90
52127;DHT22;38120;53.176;6.614;2022-08-06T12:19:55;20.60;99.90
52127;DHT22;38120;53.176;6.614;2022-08-06T12:22:23;20.80;99.90
52127;DHT22;38120;53.176;6.614;2022-08-06T12:24:51;21.40;99.90
52127;DHT22;38120;53.176;6.614;2022-08-06T12:27:20;21.90;99.90
52127;DHT22;38120;53.176;6.614;2022-08-06T12:29:46;21.70;99.90
52127;DHT22;38120;53.176;6.614;2022-08-06T12:32:29;21.60;99.90
52127;DHT22;38120;53.176;6.614;2022-08-06T12:34:58;21.60;99.90
52127;DHT22;38120;53.176;6.614;2022-08-06T12:37:37;22.00;99.90
52127;DHT22;38120;53.176;6.614;2022-08-06T12:40:08;21.90;99.90
52127;DHT22;38120;53.176;6.614;2022-08-06T12:45:29;22.20;99.90
52127;DHT22;38120;53.176;6.614;2022-08-06T12:48:03;22.20;99.90
52127;DHT22;38120;53.176;6.614;2022-08-06T12:50:31;22.40;99.90
52127;DHT22;38120;53.176;6.614;2022-08-06T12:53:08;22.20;99.90
52127;DHT22;38120;53.176;6.614;2022-08-06T12:55:48;22.20;99.90
52127;DHT22;38120;53.176;6.614;2022-08-06T12:58:18;22.30;98.30
52127;DHT22;38120;53.176;6.614;2022-08-06T13:00:48;22.40;99.20
52127;DHT22;38120;53.176;6.614;2022-08-06T13:03:15;22.40;91.00
52127;DHT22;38120;53.176;6.614;2022-08-06T13:05:43;22.50;93.30
52127;DHT22;38120;53.176;6.614;2022-08-06T13:08:10;22.40;83.30
52127;DHT22;38120;53.176;6.614;2022-08-06T13:10:36;22.30;80.20
52127;DHT22;38120;53.176;6.614;2022-08-06T13:13:04;22.40;84.40
52127;DHT22;38120;53.176;6.614;2022-08-06T13:15:31;22.50;82.00
52127;DHT22;38120;53.176;6.614;2022-08-06T13:20:47;22.80;82.10
52127;DHT22;38120;53.176;6.614;2022-08-06T13:23:14;22.90;84.30
52127;DHT22;38120;53.176;6.614;2022-08-06T13:25:47;23.10;88.60
52127;DHT22;38120;53.176;6.614;2022-08-06T13:28:15;23.10;83.00
52127;DHT22;38120;53.176;6.614;2022-08-06T13:30:46;23.30;83.70
52127;DHT22;38120;53.176;6.614;2022-08-06T13:33:22;23.10;77.80
52127;DHT22;38120;53.176;6.614;2022-08-06T13:35:49;22.80;69.20
52127;DHT22;38120;53.176;6.614;2022-08-06T13:38:29;23.10;82.30
52127;DHT22;38120;53.176;6.614;2022-08-06T13:40:55;23.10;78.70
52127;DHT22;38120;53.176;6.614;2022-08-06T13:43:21;22.90;75.80
52127;DHT22;38120;53.176;6.614;2022-08-06T13:46:12;22.60;70.40
52127;DHT22;38120;53.176;6.614;2022-08-06T13:48:46;22.70;79.30
52127;DHT22;38120;53.176;6.614;2022-08-06T13:51:13;21.90;73.20
52127;DHT22;38120;53.176;6.614;2022-08-06T13:53:39;21.90;77.90
52127;DHT22;38120;53.176;6.614;2022-08-06T13:56:05;21.90;80.00
52127;DHT22;38120;53.176;6.614;2022-08-06T13:58:31;21.80;81.60
52127;DHT22;38120;53.176;6.614;2022-08-06T14:00:57;22.10;81.10
52127;DHT22;38120;53.176;6.614;2022-08-06T14:03:24;22.30;81.80
52127;DHT22;38120;53.176;6.614;2022-08-06T14:05:50;22.00;78.70
52127;DHT22;38120;53.176;6.614;2022-08-06T14:08:16;22.10;91.40
52127;DHT22;38120;53.176;6.614;2022-08-06T14:10:42;22.50;92.20
52127;DHT22;38120;53.176;6.614;2022-08-06T14:13:08;22.60;88.70
52127;DHT22;38120;53.176;6.614;2022-08-06T14:15:52;22.50;76.80
52127;DHT22;38120;53.176;6.614;2022-08-06T14:18:20;22.80;88.40
52127;DHT22;38120;53.176;6.614;2022-08-06T14:20:46;22.70;79.40
52127;DHT22;38120;53.176;6.614;2022-08-06T14:23:13;22.90;82.90
52127;DHT22;38120;53.176;6.614;2022-08-06T14:25:39;22.50;71.50
52127;DHT22;38120;53.176;6.614;2022-08-06T14:28:06;22.70;73.60
52127;DHT22;38120;53.176;6.614;2022-08-06T14:30:32;22.70;73.00
52127;DHT22;38120;53.176;6.614;2022-08-06T14:32:58;22.60;69.10
52127;DHT22;38120;53.176;6.614;2022-08-06T14:35:26;22.70;70.00
52127;DHT22;38120;53.176;6.614;2022-08-06T14:37:52;22.70;74.70
52127;DHT22;38120;53.176;6.614;2022-08-06T14:40:20;23.00;80.00
52127;DHT22;38120;53.176;6.614;2022-08-06T14:43:04;23.30;84.80
52127;DHT22;38120;53.176;6.614;2022-08-06T14:45:48;23.30;83.50
52127;DHT22;38120;53.176;6.614;2022-08-06T14:48:14;22.60;70.00
52127;DHT22;38120;53.176;6.614;2022-08-06T14:50:40;22.30;88.30
52127;DHT22;38120;53.176;6.614;2022-08-06T14:53:05;21.80;74.70
52127;DHT22;38120;53.176;6.614;2022-08-06T14:55:31;21.50;77.50
52127;DHT22;38120;53.176;6.614;2022-08-06T14:57:57;21.90;83.70
52127;DHT22;38120;53.176;6.614;2022-08-06T15:00:22;22.00;84.90
52127;DHT22;38120;53.176;6.614;2022-08-06T15:02:48;22.30;88.40
52127;DHT22;38120;53.176;6.614;2022-08-06T15:05:16;22.60;89.00
52127;DHT22;38120;53.176;6.614;2022-08-06T15:07:42;23.00;92.50
52127;DHT22;38120;53.176;6.614;2022-08-06T15:10:12;23.30;92.90
52127;DHT22;38120;53.176;6.614;2022-08-06T15:12:37;23.20;92.70
52127;DHT22;38120;53.176;6.614;2022-08-06T15:15:04;23.20;90.00
52127;DHT22;38120;53.176;6.614;2022-08-06T15:17:31;23.10;94.60
52127;DHT22;38120;53.176;6.614;2022-08-06T15:19:57;22.90;98.50
52127;DHT22;38120;53.176;6.614;2022-08-06T15:22:22;22.50;97.60
52127;DHT22;38120;53.176;6.614;2022-08-06T15:24:48;22.40;99.90
52127;DHT22;38120;53.176;6.614;2022-08-06T15:27:14;21.90;97.90
52127;DHT22;38120;53.176;6.614;2022-08-06T15:29:45;21.50;99.90
52127;DHT22;38120;53.176;6.614;2022-08-06T15:32:11;21.30;99.90
52127;DHT22;38120;53.176;6.614;2022-08-06T15:34:36;21.10;99.90
52127;DHT22;38120;53.176;6.614;2022-08-06T15:37:02;20.70;99.90
52127;DHT22;38120;53.176;6.614;2022-08-06T15:39:32;20.60;99.90
52127;DHT22;38120;53.176;6.614;2022-08-06T15:41:58;20.60;99.90
52127;DHT22;38120;53.176;6.614;2022-08-06T15:44:24;19.90;99.90
52127;DHT22;38120;53.176;6.614;2022-08-06T15:46:50;20.60;99.90
52127;DHT22;38120;53.176;6.614;2022-08-06T15:49:16;20.60;99.90
52127;DHT22;38120;53.176;6.614;2022-08-06T15:51:42;20.50;99.90
52127;DHT22;38120;53.176;6.614;2022-08-06T15:54:08;20.50;99.90
52127;DHT22;38120;53.176;6.614;2022-08-06T15:56:34;20.70;99.90
52127;DHT22;38120;53.176;6.614;2022-08-06T15:59:00;21.00;99.90
52127;DHT22;38120;53.176;6.614;2022-08-06T16:01:26;21.10;99.90
52127;DHT22;38120;53.176;6.614;2022-08-06T16:03:51;20.90;99.90
52127;DHT22;38120;53.176;6.614;2022-08-06T16:06:17;20.70;99.90
52127;DHT22;38120;53.176;6.614;2022-08-06T16:08:43;20.50;99.90
52127;DHT22;38120;53.176;6.614;2022-08-06T16:11:10;20.30;99.90
52127;DHT22;38120;53.176;6.614;2022-08-06T16:13:37;20.20;99.90
52127;DHT22;38120;53.176;6.614;2022-08-06T16:16:03;20.10;99.90
52127;DHT22;38120;53.176;6.614;2022-08-06T16:18:29;20.10;99.90
52127;DHT22;38120;53.176;6.614;2022-08-06T16:21:01;20.10;99.90
52127;DHT22;38120;53.176;6.614;2022-08-06T16:23:27;20.10;99.90
52127;DHT22;38120;53.176;6.614;2022-08-06T16:25:53;20.10;99.90
52127;DHT22;38120;53.176;6.614;2022-08-06T16:28:19;20.00;99.90
52127;DHT22;38120;53.176;6.614;2022-08-06T16:30:45;20.00;99.90
52127;DHT22;38120;53.176;6.614;2022-08-06T16:33:10;20.00;99.90
52127;DHT22;38120;53.176;6.614;2022-08-06T16:35:36;20.10;99.90
52127;DHT22;38120;53.176;6.614;2022-08-06T16:38:03;20.30;99.90
52127;DHT22;38120;53.176;6.614;2022-08-06T16:40:28;20.40;99.90
52127;DHT22;38120;53.176;6.614;2022-08-06T16:42:55;20.30;99.90
52127;DHT22;38120;53.176;6.614;2022-08-06T16:45:22;20.30;99.90
52127;DHT22;38120;53.176;6.614;2022-08-06T16:47:52;20.40;99.90
52127;DHT22;38120;53.176;6.614;2022-08-06T16:50:19;20.40;99.90
52127;DHT22;38120;53.176;6.614;2022-08-06T16:52:45;20.70;99.90